首页
METAR-TAF:

METAR-TAF

机场 :

艾姆斯, 艾奥瓦州, 美国

纬度: 41-59-26N, 经度: 093-37-08W, 海拔: 288米

当前天气观测

该预报发布于44分钟前的09:53 UTC
风速3节,风向多变
温度 17°C
湿度 100%
气压 1011 hPa
能見度: 11.3公里
阴天层高于400英尺

METAR: KAMW 260953Z AUTO VRB03KT 7SM OVC004 17/17 A2985 RMK AO2 SLP101 T01720172

时间: 05:37 (10:37 UTC)


TAF: 丢失

超过4000个机场的气象观测和天气预报(METAR&TAF报告)。

可查询的气象台以黄色和红色小点在地图上表示。

将鼠标移到小点上方,可查看气象台名称。

然后点击查看天气观测和预报。

如需切换地图:点击带黑十字的绿色按钮放大地图;点击带横线的绿色按钮缩小地图;或者点击绿色箭头查看邻近地区的地图。


METAR-TAF: